createdAt,value
2023-04-17T00:08:50.276Z,35.04
2023-04-17T00:11:18.656Z,35.06
2023-04-17T00:13:45.510Z,35.06
2023-04-17T00:16:13.092Z,34.91
2023-04-17T00:18:39.913Z,35.04
2023-04-17T00:31:13.322Z,35.04
2023-04-17T00:33:40.425Z,34.99
2023-04-17T00:36:08.444Z,35.01
2023-04-17T00:38:35.137Z,35.07
2023-04-17T00:41:01.886Z,35.07
2023-04-17T00:53:36.164Z,35.05
2023-04-17T00:56:04.024Z,35.12
2023-04-17T00:58:30.662Z,35.16
2023-04-17T01:00:57.566Z,35.14
2023-04-17T01:03:24.529Z,35.06
2023-04-17T01:10:55.130Z,35.15
2023-04-17T01:13:22.090Z,35.16
2023-04-17T01:15:48.852Z,35.34
2023-04-17T01:18:16.047Z,35.29
2023-04-17T01:20:42.902Z,35.13
2023-04-17T01:23:09.843Z,35.17
2023-04-17T01:33:11.445Z,35.15
2023-04-17T01:35:38.191Z,35.28
2023-04-17T01:38:04.917Z,35.37
2023-04-17T01:40:31.568Z,35.35
2023-04-17T01:42:58.412Z,35.17
2023-04-17T01:45:25.155Z,35.23
2023-04-17T01:47:51.813Z,35.33
2023-04-17T01:50:18.849Z,35.31
2023-04-17T01:52:46.085Z,35.34
2023-04-17T01:55:13.035Z,35.29
2023-04-17T01:57:40.509Z,35.20
2023-04-17T02:00:08.980Z,35.33
2023-04-17T02:02:39.802Z,35.30
2023-04-17T02:05:07.272Z,35.46
2023-04-17T02:07:34.002Z,35.34
2023-04-17T02:10:00.618Z,35.28
2023-04-17T02:12:27.382Z,35.34
2023-04-17T02:14:54.028Z,35.47
2023-04-17T02:17:20.730Z,35.32
2023-04-17T02:19:47.816Z,35.30
2023-04-17T02:22:15.292Z,35.36
2023-04-17T02:24:42.013Z,35.40
2023-04-17T02:27:08.753Z,35.46
2023-04-17T02:29:35.791Z,35.39
2023-04-17T02:32:02.449Z,35.38
2023-04-17T02:34:30.451Z,35.26
2023-04-17T02:36:57.454Z,35.35
2023-04-17T02:39:24.026Z,35.31
2023-04-17T02:41:50.535Z,35.47
2023-04-17T02:44:17.265Z,35.39
2023-04-17T02:46:44.309Z,35.40
2023-04-17T02:49:11.342Z,35.39
2023-04-17T02:51:38.712Z,35.42
2023-04-17T02:54:05.262Z,35.43
2023-04-17T02:56:31.994Z,35.44
2023-04-17T02:58:58.747Z,35.47
2023-04-17T03:01:25.867Z,35.46
2023-04-17T03:03:53.068Z,35.47
2023-04-17T03:06:21.216Z,35.48
2023-04-17T03:08:48.469Z,35.37
2023-04-17T03:11:15.822Z,35.52
2023-04-17T03:13:42.761Z,35.49
2023-04-17T03:16:09.542Z,35.54
2023-04-17T03:18:39.236Z,35.59
2023-04-17T03:21:06.781Z,35.61
2023-04-17T03:23:34.031Z,35.52
2023-04-17T03:26:01.484Z,35.47
2023-04-17T03:28:29.363Z,35.48
2023-04-17T03:30:59.028Z,35.55
2023-04-17T03:33:26.633Z,35.47
2023-04-17T03:35:54.184Z,35.50
2023-04-17T03:38:20.925Z,35.48
2023-04-17T03:40:47.674Z,35.59
2023-04-17T03:43:14.813Z,35.54
2023-04-17T03:45:41.627Z,35.68
2023-04-17T03:48:08.319Z,35.50
2023-04-17T03:50:35.407Z,35.62
2023-04-17T03:53:02.086Z,35.62
2023-04-17T03:55:30.371Z,35.61
2023-04-17T03:57:57.614Z,35.56
2023-04-17T04:00:25.567Z,35.62
2023-04-17T04:02:55.533Z,35.69
2023-04-17T04:05:26.442Z,35.61
2023-04-17T04:07:53.811Z,35.58
2023-04-17T04:10:25.611Z,35.64
2023-04-17T04:12:52.900Z,35.69
2023-04-17T04:15:19.950Z,35.75
2023-04-17T04:17:47.448Z,35.69
2023-04-17T04:20:14.866Z,35.67
2023-04-17T04:22:44.168Z,35.72
2023-04-17T04:25:11.935Z,35.76
2023-04-17T04:27:49.013Z,35.73
2023-04-17T04:30:18.214Z,35.69
2023-04-17T04:32:45.476Z,35.57
2023-04-17T04:35:14.248Z,35.71
2023-04-17T04:37:42.527Z,35.73
2023-04-17T04:40:10.510Z,35.75
2023-04-17T04:42:39.362Z,35.78
2023-04-17T04:45:18.506Z,35.69
2023-04-17T04:47:45.508Z,35.76
2023-04-17T04:50:12.294Z,35.79
2023-04-17T04:52:39.036Z,35.66
2023-04-17T04:55:12.235Z,35.74
2023-04-17T04:57:43.617Z,35.76
2023-04-17T05:00:13.922Z,35.78
2023-04-17T05:02:45.814Z,35.85
2023-04-17T05:05:14.157Z,35.82
2023-04-17T05:07:41.722Z,35.83
2023-04-17T05:10:10.613Z,35.90
2023-04-17T05:12:41.139Z,35.84
2023-04-17T05:15:08.999Z,35.78
2023-04-17T05:17:37.003Z,35.82
2023-04-17T05:20:08.752Z,35.78
2023-04-17T05:22:39.600Z,35.79
2023-04-17T05:25:09.180Z,35.80
2023-04-17T05:27:36.033Z,35.89
2023-04-17T05:30:03.594Z,35.96
2023-04-17T05:32:30.864Z,35.86
2023-04-17T05:35:01.979Z,35.82
2023-04-17T05:37:29.634Z,35.80
2023-04-17T05:39:56.287Z,35.85
2023-04-17T05:42:23.243Z,35.86
2023-04-17T05:44:50.065Z,35.83
2023-04-17T05:47:18.660Z,35.81
2023-04-17T05:49:45.588Z,35.86
2023-04-17T05:52:12.238Z,35.77
2023-04-17T05:54:41.420Z,35.76
2023-04-17T05:57:08.377Z,35.85
2023-04-17T05:59:35.902Z,35.86
2023-04-17T06:02:03.798Z,35.80
2023-04-17T06:04:33.286Z,35.84
2023-04-17T06:07:02.519Z,35.87
2023-04-17T06:09:29.768Z,35.85
2023-04-17T06:11:56.492Z,35.83
2023-04-17T06:14:23.260Z,35.81
2023-04-17T06:16:50.165Z,35.77
2023-04-17T06:19:17.127Z,35.71
2023-04-17T06:21:44.885Z,35.76
2023-04-17T06:24:11.639Z,35.79
2023-04-17T06:26:43.097Z,35.81
2023-04-17T06:29:11.078Z,35.79
2023-04-17T06:31:38.053Z,35.88
2023-04-17T06:34:05.147Z,35.73
2023-04-17T06:36:35.979Z,35.77
2023-04-17T06:39:03.858Z,35.86
2023-04-17T06:41:31.048Z,35.82
2023-04-17T06:43:57.745Z,35.76
2023-04-17T06:46:27.514Z,35.70
2023-04-17T06:48:57.275Z,35.76
2023-04-17T06:51:24.927Z,35.78
2023-04-17T06:53:51.970Z,35.69
2023-04-17T06:56:19.053Z,35.66
2023-04-17T06:58:46.423Z,35.79
2023-04-17T07:01:13.331Z,35.69
2023-04-17T07:03:40.754Z,35.65
2023-04-17T07:06:08.551Z,35.75
2023-04-17T07:08:35.189Z,35.64
2023-04-17T07:11:02.036Z,35.69
2023-04-17T07:18:34.733Z,35.63
2023-04-17T07:21:02.395Z,35.65
2023-04-17T07:23:29.081Z,35.50
2023-04-17T07:25:55.781Z,35.54
2023-04-17T07:28:22.771Z,35.55
2023-04-17T07:30:49.465Z,35.49
2023-04-17T07:33:16.115Z,35.37
2023-04-17T07:43:17.910Z,35.36
2023-04-17T07:45:44.434Z,35.29
2023-04-17T07:48:11.300Z,35.27
2023-04-17T07:50:38.029Z,35.26
2023-04-17T07:53:04.692Z,35.18
2023-04-17T08:05:38.445Z,34.93
2023-04-17T08:08:05.576Z,34.98
2023-04-17T08:10:32.328Z,34.82
2023-04-17T08:13:00.624Z,34.82
2023-04-17T08:15:27.551Z,34.88
2023-04-17T08:25:25.694Z,34.83
2023-04-17T08:27:52.946Z,34.94
2023-04-17T08:30:19.875Z,34.97
2023-04-17T08:32:48.233Z,34.96
2023-04-17T08:35:15.197Z,34.85
2023-04-17T08:37:43.685Z,34.89
2023-04-17T08:40:11.786Z,34.90
2023-04-17T08:42:40.947Z,34.67
2023-04-17T08:45:11.499Z,35.00
2023-04-17T08:47:38.896Z,34.93
2023-04-17T08:50:16.144Z,34.82
2023-04-17T08:52:44.213Z,34.82
2023-04-17T08:55:13.262Z,34.84
2023-04-17T08:58:00.469Z,34.82
2023-04-17T09:00:34.698Z,34.90
2023-04-17T09:03:03.423Z,34.80
2023-04-17T09:05:33.045Z,34.82
2023-04-17T09:08:28.944Z,34.88
2023-04-17T09:10:55.999Z,34.83
2023-04-17T09:13:24.800Z,34.79
2023-04-17T09:16:07.661Z,34.81
2023-04-17T09:18:35.166Z,34.86
2023-04-17T09:21:02.651Z,34.94
2023-04-17T09:23:31.200Z,34.84
2023-04-17T09:26:08.908Z,34.85
2023-04-17T09:28:38.727Z,34.81
2023-04-17T09:31:07.003Z,34.87
2023-04-17T09:33:33.736Z,34.92
2023-04-17T09:36:21.425Z,34.85
2023-04-17T09:38:49.369Z,34.87
2023-04-17T09:41:26.619Z,34.81
2023-04-17T09:43:54.889Z,34.80
2023-04-17T09:46:35.195Z,34.81
2023-04-17T09:49:22.588Z,34.87
2023-04-17T09:51:49.630Z,34.73
2023-04-17T09:54:16.780Z,34.80
2023-04-17T09:56:43.416Z,34.81
2023-04-17T09:59:10.472Z,34.83
2023-04-17T10:01:37.364Z,34.80
2023-04-17T10:06:36.539Z,34.75
2023-04-17T10:09:04.324Z,34.76
2023-04-17T10:11:41.991Z,34.82
2023-04-17T10:14:30.676Z,34.76
2023-04-17T10:16:57.498Z,34.77
2023-04-17T10:19:28.211Z,34.86
2023-04-17T10:22:18.204Z,34.76
2023-04-17T10:24:46.722Z,34.72
2023-04-17T10:27:25.741Z,34.73
2023-04-17T10:29:57.071Z,34.68
2023-04-17T10:32:30.078Z,34.60
2023-04-17T10:34:58.424Z,34.43
2023-04-17T10:37:47.309Z,34.33
2023-04-17T10:40:25.393Z,34.34
2023-04-17T10:43:02.790Z,34.27
2023-04-17T10:46:00.445Z,34.37
2023-04-17T10:48:51.825Z,34.33
2023-04-17T10:51:26.295Z,34.27
2023-04-17T10:53:59.800Z,34.33
2023-04-17T10:56:27.148Z,34.29
2023-04-17T10:59:03.624Z,34.42
2023-04-17T11:01:32.384Z,34.36
2023-04-17T11:03:59.842Z,34.43
2023-04-17T11:06:28.346Z,34.35
2023-04-17T11:08:57.424Z,34.36
2023-04-17T11:11:40.076Z,34.34
2023-04-17T11:14:14.145Z,34.30
2023-04-17T11:16:42.195Z,34.28
2023-04-17T11:19:09.336Z,34.26
2023-04-17T11:21:42.785Z,34.19
2023-04-17T11:24:09.625Z,34.10
2023-04-17T11:26:43.703Z,34.04
2023-04-17T11:29:19.851Z,34.11
2023-04-17T11:31:51.282Z,34.18
2023-04-17T11:34:17.938Z,34.12
2023-04-17T11:36:57.783Z,34.12
2023-04-17T11:39:26.021Z,34.08
2023-04-17T11:44:24.400Z,34.11
2023-04-17T11:46:55.385Z,34.09
2023-04-17T11:49:28.171Z,34.07
2023-04-17T11:51:55.580Z,34.01
2023-04-17T11:54:29.101Z,33.91
2023-04-17T11:57:00.835Z,34.11
2023-04-17T11:59:37.331Z,34.05
2023-04-17T12:02:06.530Z,33.88
2023-04-17T12:04:34.451Z,34.05
2023-04-17T12:07:02.049Z,33.98
2023-04-17T12:09:31.218Z,34.00
2023-04-17T12:12:03.198Z,33.93
2023-04-17T12:14:30.775Z,34.01
2023-04-17T12:16:57.602Z,34.00
2023-04-17T12:19:26.105Z,34.01
2023-04-17T12:21:53.849Z,34.05
2023-04-17T12:24:22.340Z,34.05
2023-04-17T12:26:49.885Z,33.94
2023-04-17T12:29:17.156Z,33.89
2023-04-17T12:31:44.183Z,33.90
2023-04-17T12:34:11.128Z,33.84
2023-04-17T12:36:38.191Z,33.86
2023-04-17T12:39:04.836Z,33.98
2023-04-17T12:41:31.664Z,34.00
2023-04-17T12:44:01.169Z,34.05
2023-04-17T12:46:28.231Z,34.13
2023-04-17T12:48:57.933Z,33.98
2023-04-17T12:51:27.426Z,34.06
2023-04-17T12:53:54.892Z,33.92
2023-04-17T12:56:21.628Z,33.96
2023-04-17T12:58:48.488Z,34.04
2023-04-17T13:01:15.569Z,33.94
2023-04-17T13:03:42.365Z,33.95
2023-04-17T13:06:09.202Z,33.91
2023-04-17T13:08:36.147Z,33.87
2023-04-17T13:11:03.779Z,33.95
2023-04-17T13:13:30.442Z,34.01
2023-04-17T13:15:57.904Z,34.01
2023-04-17T13:18:24.871Z,34.05
2023-04-17T13:20:51.404Z,34.05
2023-04-17T13:23:18.117Z,34.09
2023-04-17T13:25:44.816Z,34.12
2023-04-17T13:28:11.609Z,34.21
2023-04-17T13:30:39.201Z,34.15
2023-04-17T13:33:06.035Z,33.99
2023-04-17T13:35:32.965Z,33.95
2023-04-17T13:38:02.374Z,34.11
2023-04-17T13:40:29.827Z,34.17
2023-04-17T13:42:56.604Z,34.07
2023-04-17T13:45:23.497Z,34.11
2023-04-17T13:47:50.820Z,34.07
2023-04-17T13:50:17.603Z,34.07
2023-04-17T13:52:44.254Z,34.15
2023-04-17T13:55:13.743Z,34.20
2023-04-17T13:57:40.376Z,34.08
2023-04-17T14:00:08.156Z,34.16
2023-04-17T14:02:35.219Z,34.25
2023-04-17T14:05:02.508Z,34.29
2023-04-17T14:07:29.729Z,34.26
2023-04-17T14:09:56.427Z,34.24
2023-04-17T14:12:23.197Z,34.35
2023-04-17T14:14:49.920Z,34.25
2023-04-17T14:17:17.586Z,34.33
2023-04-17T14:19:44.542Z,34.29
2023-04-17T14:22:11.277Z,34.26
2023-04-17T14:24:37.910Z,34.22
2023-04-17T14:27:04.661Z,34.30
2023-04-17T14:29:31.417Z,34.42
2023-04-17T14:31:58.316Z,34.43
2023-04-17T14:34:24.992Z,34.52
2023-04-17T14:36:51.603Z,34.50
2023-04-17T14:39:19.333Z,34.59
2023-04-17T14:41:46.274Z,34.54
2023-04-17T14:44:13.518Z,34.55
2023-04-17T14:46:40.412Z,34.54
2023-04-17T14:49:07.985Z,34.53
2023-04-17T14:51:34.724Z,34.50
2023-04-17T14:54:01.473Z,34.60
2023-04-17T14:56:28.106Z,34.54
2023-04-17T14:58:54.940Z,34.67
2023-04-17T15:01:21.827Z,34.88
2023-04-17T15:03:49.173Z,34.74
2023-04-17T15:06:16.574Z,34.71
2023-04-17T15:08:45.487Z,34.82
2023-04-17T15:11:12.338Z,34.79
2023-04-17T15:13:40.010Z,34.86
2023-04-17T15:16:08.489Z,34.90
2023-04-17T15:18:35.618Z,34.75
2023-04-17T15:21:02.115Z,34.88
2023-04-17T15:23:29.925Z,35.14
2023-04-17T15:25:57.283Z,35.64
2023-04-17T15:28:24.846Z,35.92
2023-04-17T15:30:51.588Z,36.10
2023-04-17T15:33:18.936Z,36.46
2023-04-17T15:35:45.777Z,36.61
2023-04-17T15:38:12.415Z,36.91
2023-04-17T15:40:39.158Z,37.04
2023-04-17T15:43:05.777Z,36.93
2023-04-17T15:45:32.448Z,37.03
2023-04-17T15:48:00.344Z,37.30
2023-04-17T15:50:27.351Z,37.46
2023-04-17T15:52:54.078Z,37.63
2023-04-17T15:55:20.862Z,37.65
2023-04-17T15:57:47.667Z,37.87
2023-04-17T16:00:16.536Z,38.02
2023-04-17T16:02:46.889Z,38.25
2023-04-17T16:05:15.457Z,38.58
2023-04-17T16:07:42.209Z,38.64
2023-04-17T16:10:13.484Z,38.88
2023-04-17T16:12:43.686Z,38.90
2023-04-17T16:15:11.342Z,39.09
2023-04-17T16:17:38.121Z,39.31
2023-04-17T16:20:06.778Z,39.34
2023-04-17T16:22:33.498Z,39.25
2023-04-17T16:25:01.277Z,39.47
2023-04-17T16:27:28.627Z,39.51
2023-04-17T16:29:55.478Z,39.32
2023-04-17T16:32:24.092Z,39.45
2023-04-17T16:34:53.366Z,39.50
2023-04-17T16:37:20.004Z,39.46
2023-04-17T16:39:46.984Z,39.37
2023-04-17T16:42:14.088Z,39.44
2023-04-17T16:44:40.672Z,39.30
2023-04-17T16:47:13.472Z,39.16
2023-04-17T16:49:41.679Z,39.06
2023-04-17T16:52:08.625Z,39.11
2023-04-17T16:54:35.346Z,39.08
2023-04-17T16:57:02.148Z,39.03
2023-04-17T16:59:28.882Z,38.98
2023-04-17T17:01:55.850Z,38.75
2023-04-17T17:04:22.876Z,38.85
2023-04-17T17:06:49.684Z,38.78
2023-04-17T17:09:16.426Z,38.76
2023-04-17T17:11:43.062Z,38.76
2023-04-17T17:14:09.802Z,38.74
2023-04-17T17:16:36.586Z,38.72
2023-04-17T17:19:03.486Z,38.70
2023-04-17T17:21:30.435Z,38.66
2023-04-17T17:23:57.172Z,38.60
2023-04-17T17:26:24.635Z,38.54
2023-04-17T17:28:52.816Z,38.52
2023-04-17T17:31:19.666Z,38.42
2023-04-17T17:33:49.752Z,38.43
2023-04-17T17:36:17.265Z,38.40
2023-04-17T17:38:43.960Z,38.30
2023-04-17T17:41:10.774Z,38.34
2023-04-17T17:43:37.559Z,38.25
2023-04-17T17:46:04.248Z,38.34
2023-04-17T17:48:31.024Z,38.30
2023-04-17T17:50:57.773Z,38.38
2023-04-17T17:53:26.977Z,38.34
2023-04-17T17:55:54.453Z,38.23
2023-04-17T17:58:21.471Z,38.13
2023-04-17T18:00:49.154Z,38.10
2023-04-17T18:03:16.230Z,38.10
2023-04-17T18:05:43.449Z,38.15
2023-04-17T18:08:10.074Z,38.13
2023-04-17T18:10:38.151Z,38.00
2023-04-17T18:13:05.206Z,38.00
2023-04-17T18:15:32.055Z,38.16
2023-04-17T18:18:02.120Z,38.03
2023-04-17T18:20:29.109Z,38.06
2023-04-17T18:22:55.836Z,38.09
2023-04-17T18:25:22.477Z,38.00
2023-04-17T18:27:49.120Z,37.99
2023-04-17T18:30:16.177Z,38.10
2023-04-17T18:32:42.943Z,37.96
2023-04-17T18:35:09.760Z,37.99
2023-04-17T18:37:36.999Z,38.01
2023-04-17T18:40:06.674Z,37.99
2023-04-17T18:42:33.231Z,38.03
2023-04-17T18:45:00.430Z,37.93
2023-04-17T18:47:28.991Z,37.89
2023-04-17T18:49:55.639Z,37.91
2023-04-17T18:52:22.780Z,37.95
2023-04-17T18:54:49.819Z,37.95
2023-04-17T18:57:16.462Z,37.96
2023-04-17T18:59:43.467Z,37.97
2023-04-17T19:02:10.359Z,37.90
2023-04-17T19:04:37.197Z,37.83
2023-04-17T19:07:03.920Z,37.95
2023-04-17T19:09:32.948Z,37.80
2023-04-17T19:12:00.297Z,37.88
2023-04-17T19:14:31.832Z,37.90
2023-04-17T19:16:59.083Z,37.84
2023-04-17T19:19:25.837Z,37.93
2023-04-17T19:21:52.768Z,38.04
2023-04-17T19:24:20.034Z,37.96
2023-04-17T19:26:46.772Z,37.97
2023-04-17T19:29:16.474Z,38.01
2023-04-17T19:31:44.287Z,38.05
2023-04-17T19:34:10.993Z,37.87
2023-04-17T19:36:37.819Z,37.86
2023-04-17T19:39:04.673Z,37.96
2023-04-17T19:41:31.534Z,37.93
2023-04-17T19:43:58.155Z,37.96
2023-04-17T19:46:26.771Z,37.86
2023-04-17T19:53:57.502Z,37.91
2023-04-17T19:56:24.095Z,37.87
2023-04-17T19:58:51.089Z,37.92
2023-04-17T20:01:18.156Z,37.87
2023-04-17T20:03:45.339Z,37.86
2023-04-17T20:06:13.581Z,37.81
2023-04-17T20:08:40.409Z,37.84
2023-04-17T20:11:11.386Z,37.88
2023-04-17T20:13:38.287Z,37.84
2023-04-17T20:16:07.276Z,37.83
2023-04-17T20:18:34.737Z,37.94
2023-04-17T20:21:01.489Z,37.93
2023-04-17T20:23:28.827Z,37.92
2023-04-17T20:25:55.359Z,37.85
2023-04-17T20:28:22.415Z,37.85
2023-04-17T20:30:49.256Z,37.81
2023-04-17T20:33:15.971Z,37.93
2023-04-17T20:35:42.940Z,37.88
2023-04-17T20:38:09.780Z,37.80
2023-04-17T20:40:36.530Z,37.86
2023-04-17T20:43:03.081Z,37.84
2023-04-17T20:45:29.910Z,37.87
2023-04-17T20:47:57.368Z,37.90
2023-04-17T20:50:24.544Z,37.86
2023-04-17T20:52:51.256Z,37.89
2023-04-17T20:55:19.139Z,37.81
2023-04-17T20:57:46.082Z,37.94
2023-04-17T21:00:12.903Z,37.96
2023-04-17T21:02:39.626Z,37.97
2023-04-17T21:05:07.007Z,37.93
2023-04-17T21:07:34.070Z,37.94
2023-04-17T21:10:00.800Z,37.85
2023-04-17T21:12:27.643Z,37.89
2023-04-17T21:14:54.784Z,37.84
2023-04-17T21:17:21.420Z,37.84
2023-04-17T21:19:48.780Z,37.82
2023-04-17T21:22:15.620Z,37.89
2023-04-17T21:24:42.583Z,37.76
2023-04-17T21:27:09.880Z,37.84
2023-04-17T21:29:36.973Z,37.83
2023-04-17T21:32:04.059Z,37.74
2023-04-17T21:34:30.771Z,37.88
2023-04-17T21:36:59.251Z,37.92
2023-04-17T21:39:26.085Z,37.81
2023-04-17T21:41:52.830Z,37.83
2023-04-17T21:44:19.380Z,37.95
2023-04-17T21:46:46.429Z,37.80
2023-04-17T21:49:13.043Z,37.79
2023-04-17T21:51:40.401Z,37.93
2023-04-17T21:54:08.364Z,37.91
2023-04-17T21:56:35.650Z,37.93
2023-04-17T21:59:03.188Z,37.83
2023-04-17T22:01:30.388Z,37.85
2023-04-17T22:03:57.196Z,37.92
2023-04-17T22:06:24.040Z,37.90
2023-04-17T22:08:50.791Z,37.92
2023-04-17T22:11:17.551Z,37.95
2023-04-17T22:13:46.387Z,37.84
2023-04-17T22:16:13.165Z,37.87
2023-04-17T22:18:40.087Z,37.95
2023-04-17T22:21:07.061Z,37.92
2023-04-17T22:23:33.667Z,37.83
2023-04-17T22:26:00.308Z,37.96
2023-04-17T22:28:30.831Z,37.98
2023-04-17T22:30:58.101Z,37.94
2023-04-17T22:33:25.759Z,37.95
2023-04-17T22:35:52.796Z,38.04
2023-04-17T22:38:20.553Z,37.93
2023-04-17T22:40:47.917Z,38.07
2023-04-17T22:43:14.965Z,38.05
2023-04-17T22:45:41.921Z,38.04
2023-04-17T22:48:08.695Z,37.90
2023-04-17T22:50:37.342Z,37.99
2023-04-17T22:53:04.369Z,37.99
2023-04-17T22:55:31.184Z,38.00
2023-04-17T22:57:59.390Z,38.02
2023-04-17T23:00:26.130Z,38.15
2023-04-17T23:02:53.261Z,38.04
2023-04-17T23:05:20.179Z,38.08
2023-04-17T23:07:46.875Z,38.08
2023-04-17T23:10:13.706Z,38.02
2023-04-17T23:12:40.374Z,38.11
2023-04-17T23:15:08.243Z,38.04
2023-04-17T23:17:35.123Z,38.10
2023-04-17T23:20:02.018Z,38.00
2023-04-17T23:22:29.092Z,37.98
2023-04-17T23:24:56.330Z,38.01
2023-04-17T23:27:22.991Z,38.15
2023-04-17T23:29:50.094Z,38.13
2023-04-17T23:32:16.826Z,38.09
2023-04-17T23:34:43.384Z,38.10
2023-04-17T23:37:10.413Z,37.97
2023-04-17T23:39:37.156Z,38.04
2023-04-17T23:42:06.669Z,38.01
2023-04-17T23:44:36.630Z,38.14
2023-04-17T23:47:03.935Z,38.16
2023-04-17T23:49:30.783Z,38.10
2023-04-17T23:51:57.450Z,38.08
2023-04-17T23:54:24.274Z,38.20
2023-04-17T23:56:51.000Z,38.13
2023-04-17T23:59:17.836Z,38.04
